Time;durP1;ratioP1;P1;durP2;ratioP2;P2;SDS_P1;SDS_P2;PMS_P1;PMS_P2;Temp;Humidity;BMP_temperature;BMP_pressure;BME280_temperature;BME280_humidity;BME280_pressure;Samples;Min_cycle;Max_cycle;Signal;HPM_P1;HPM_P2
2022/04/21 00:00:59;;;;;;;;;16.50;13.25;;;;;;;;5011568;28;11433;-76
2022/04/21 00:03:26;;;;;;;;;13.50;11.75;;;;;;;;5024014;28;11515;-76
2022/04/21 00:05:53;;;;;;;;;13.00;13.00;;;;;;;;5013860;28;11521;-76
2022/04/21 00:08:20;;;;;;;;;15.50;12.00;;;;;;;;5026407;28;12276;-76
2022/04/21 00:10:48;;;;;;;;;17.00;11.00;;;;;;;;5022871;28;11516;-75
2022/04/21 00:13:15;;;;;;;;;10.75;9.50;;;;;;;;5030451;28;11495;-76
2022/04/21 00:15:45;;;;;;;;;12.00;11.00;;;;;;;;5023310;28;11472;-76
2022/04/21 00:18:12;;;;;;;;;11.25;10.75;;;;;;;;5020561;28;11493;-75
2022/04/21 00:20:39;;;;;;;;;13.00;13.00;;;;;;;;5019651;28;11487;-76
2022/04/21 00:25:53;;;;;;;;;12.00;12.00;;;;;;;;5020105;28;11489;-76
2022/04/21 00:28:20;;;;;;;;;13.00;11.00;;;;;;;;5006368;28;11495;-76
2022/04/21 00:30:49;;;;;;;;;10.00;10.00;;;;;;;;4991934;28;11457;-76
2022/04/21 00:33:16;;;;;;;;;14.75;13.00;;;;;;;;5023367;28;11502;-76
2022/04/21 00:35:44;;;;;;;;;12.25;11.00;;;;;;;;5022564;28;11489;-75
2022/04/21 00:38:11;;;;;;;;;12.50;12.25;;;;;;;;5006077;28;11506;-76
2022/04/21 00:40:38;;;;;;;;;14.75;13.50;;;;;;;;5015481;28;11519;-76
2022/04/21 00:43:06;;;;;;;;;12.00;10.25;;;;;;;;5018232;28;12307;-76
2022/04/21 00:45:34;;;;;;;;;10.00;10.00;;;;;;;;5003505;28;11590;-76
2022/04/21 00:48:05;;;;;;;;;13.25;13.25;;;;;;;;5022867;28;11502;-76
2022/04/21 00:50:35;;;;;;;;;18.25;14.50;;;;;;;;5015872;28;11512;-75
2022/04/21 00:53:03;;;;;;;;;18.25;14.00;;;;;;;;5023907;28;11531;-76
2022/04/21 00:55:31;;;;;;;;;18.75;13.75;;;;;;;;5020804;28;11504;-76
2022/04/21 00:58:01;;;;;;;;;13.75;13.50;;;;;;;;5016866;28;11498;-76
2022/04/21 01:00:28;;;;;;;;;15.25;11.50;;;;;;;;5015632;28;13020;-76
2022/04/21 01:02:54;;;;;;;;;11.50;9.75;;;;;;;;5016719;28;11506;-76
2022/04/21 01:05:29;;;;;;;;;14.00;11.00;;;;;;;;5014612;28;11506;-76
2022/04/21 01:07:57;;;;;;;;;14.50;10.75;;;;;;;;5022634;28;11525;-76
2022/04/21 01:10:27;;;;;;;;;13.00;13.00;;;;;;;;5021326;28;11511;-76
2022/04/21 01:12:54;;;;;;;;;13.25;13.25;;;;;;;;5022758;28;11626;-76
2022/04/21 01:15:22;;;;;;;;;13.00;13.00;;;;;;;;5017049;28;11536;-76
2022/04/21 01:17:49;;;;;;;;;16.50;15.00;;;;;;;;5016530;28;11508;-76
2022/04/21 01:20:20;;;;;;;;;14.75;14.75;;;;;;;;5014654;28;11544;-75
2022/04/21 01:22:47;;;;;;;;;15.75;15.75;;;;;;;;5019739;28;11513;-75
2022/04/21 01:25:14;;;;;;;;;16.25;15.75;;;;;;;;5020811;28;12909;-76
2022/04/21 01:27:42;;;;;;;;;14.00;14.00;;;;;;;;5020596;28;11514;-76
2022/04/21 01:30:11;;;;;;;;;18.50;15.50;;;;;;;;4994784;28;11516;-76
2022/04/21 01:32:41;;;;;;;;;11.00;11.00;;;;;;;;5020983;28;11499;-75
2022/04/21 01:35:09;;;;;;;;;18.25;14.75;;;;;;;;5016272;28;11508;-75
2022/04/21 01:43:09;;;;;;;;;15.00;14.00;;;;;;;;5006087;28;11589;-76
2022/04/21 01:45:36;;;;;;;;;10.75;10.75;;;;;;;;5015389;28;11625;-76
2022/04/21 01:48:05;;;;;;;;;12.00;12.00;;;;;;;;5020187;28;11560;-76
2022/04/21 01:50:33;;;;;;;;;20.50;15.00;;;;;;;;5020843;28;11530;-76
2022/04/21 01:53:02;;;;;;;;;15.25;15.00;;;;;;;;5020350;28;11545;-76
2022/04/21 01:55:29;;;;;;;;;10.50;10.00;;;;;;;;5020595;28;11541;-76
2022/04/21 01:57:56;;;;;;;;;7.75;7.75;;;;;;;;5019342;28;11525;-76
2022/04/21 02:00:24;;;;;;;;;17.00;14.00;;;;;;;;5019363;28;11388;-76
2022/04/21 02:02:51;;;;;;;;;11.75;11.75;;;;;;;;5019653;28;11551;-76
2022/04/21 02:05:19;;;;;;;;;15.50;11.75;;;;;;;;5019199;28;11525;-76
2022/04/21 02:07:47;;;;;;;;;17.00;15.50;;;;;;;;5021349;28;11554;-76
2022/04/21 02:10:18;;;;;;;;;14.25;12.00;;;;;;;;5011908;28;11524;-76
2022/04/21 02:12:45;;;;;;;;;15.00;15.00;;;;;;;;5007257;28;476580;-76
2022/04/21 02:15:13;;;;;;;;;11.25;10.75;;;;;;;;5019312;28;9521;-76
2022/04/21 02:17:40;;;;;;;;;15.25;13.25;;;;;;;;5021474;28;12397;-76
2022/04/21 02:20:10;;;;;;;;;14.25;12.25;;;;;;;;5017925;28;11604;-76
2022/04/21 02:22:37;;;;;;;;;10.25;10.00;;;;;;;;5016684;28;11517;-76
2022/04/21 02:25:06;;;;;;;;;13.00;11.25;;;;;;;;5016412;28;12285;-76
2022/04/21 02:27:35;;;;;;;;;10.50;10.50;;;;;;;;5021359;28;11517;-76
2022/04/21 02:30:03;;;;;;;;;15.00;13.25;;;;;;;;5019722;28;11487;-76
2022/04/21 02:32:30;;;;;;;;;15.00;15.00;;;;;;;;5024309;28;11492;-75
2022/04/21 02:34:58;;;;;;;;;14.75;14.75;;;;;;;;5024924;28;11540;-75
2022/04/21 02:37:25;;;;;;;;;15.00;12.50;;;;;;;;5010083;28;11532;-74
2022/04/21 02:39:53;;;;;;;;;14.25;14.25;;;;;;;;5023431;28;11543;-75
2022/04/21 02:42:20;;;;;;;;;15.75;13.00;;;;;;;;5005401;28;11614;-75
2022/04/21 02:44:49;;;;;;;;;15.50;15.50;;;;;;;;5022812;28;11570;-75
2022/04/21 02:47:17;;;;;;;;;13.00;10.75;;;;;;;;5007656;28;11509;-75
2022/04/21 02:49:45;;;;;;;;;11.75;11.75;;;;;;;;5019743;28;11556;-75
2022/04/21 02:52:14;;;;;;;;;12.50;10.75;;;;;;;;5018342;28;11558;-75
2022/04/21 02:57:27;;;;;;;;;13.25;12.25;;;;;;;;5017886;28;11610;-76
2022/04/21 02:59:57;;;;;;;;;16.75;12.50;;;;;;;;5018232;28;11572;-75
2022/04/21 03:02:25;;;;;;;;;17.00;14.75;;;;;;;;5022002;28;11555;-76
2022/04/21 03:04:54;;;;;;;;;11.75;11.75;;;;;;;;5021662;28;11811;-76
2022/04/21 03:07:22;;;;;;;;;11.50;11.50;;;;;;;;5023248;28;11501;-76
2022/04/21 03:09:50;;;;;;;;;14.00;12.00;;;;;;;;5020856;28;11501;-76
2022/04/21 03:12:17;;;;;;;;;16.75;16.75;;;;;;;;5023547;28;11558;-76
2022/04/21 03:14:45;;;;;;;;;15.50;15.00;;;;;;;;5023267;28;11501;-76
2022/04/21 03:17:14;;;;;;;;;13.50;13.50;;;;;;;;5007615;28;12305;-76
2022/04/21 03:19:41;;;;;;;;;17.00;14.25;;;;;;;;5021171;28;11529;-76
2022/04/21 03:25:01;;;;;;;;;16.50;14.75;;;;;;;;5023668;28;11475;-76
2022/04/21 03:27:29;;;;;;;;;11.25;11.25;;;;;;;;5022112;28;11519;-76
2022/04/21 03:29:56;;;;;;;;;10.25;8.25;;;;;;;;5000778;28;12298;-76
2022/04/21 03:32:26;;;;;;;;;15.25;14.00;;;;;;;;5019407;28;12835;-76
2022/04/21 03:34:54;;;;;;;;;14.50;14.25;;;;;;;;5018391;28;11539;-76
2022/04/21 03:37:23;;;;;;;;;17.50;15.00;;;;;;;;5027393;28;11546;-75
2022/04/21 03:39:50;;;;;;;;;15.75;14.00;;;;;;;;5024533;28;11554;-76
2022/04/21 03:42:19;;;;;;;;;19.00;17.25;;;;;;;;5013373;28;11621;-76
2022/04/21 03:44:47;;;;;;;;;15.50;15.50;;;;;;;;5021631;28;11530;-76
2022/04/21 03:47:15;;;;;;;;;13.75;13.75;;;;;;;;4998618;28;11480;-75
2022/04/21 03:49:44;;;;;;;;;17.25;12.50;;;;;;;;5016504;28;11721;-75
2022/04/21 03:52:11;;;;;;;;;12.00;10.00;;;;;;;;5022920;28;11824;-76
2022/04/21 03:54:39;;;;;;;;;16.00;16.00;;;;;;;;5023096;28;11488;-76
2022/04/21 03:57:06;;;;;;;;;14.00;14.00;;;;;;;;5024832;28;11531;-76
2022/04/21 03:59:34;;;;;;;;;11.50;11.25;;;;;;;;5002890;28;11548;-76
2022/04/21 04:02:03;;;;;;;;;13.00;13.00;;;;;;;;5022002;28;11460;-76
2022/04/21 04:04:30;;;;;;;;;15.75;12.00;;;;;;;;5021959;28;11490;-76
2022/04/21 04:12:41;;;;;;;;;14.50;14.50;;;;;;;;4968625;28;11563;-76
2022/04/21 04:15:09;;;;;;;;;13.00;12.25;;;;;;;;5011527;28;11524;-76
2022/04/21 04:17:37;;;;;;;;;19.75;16.00;;;;;;;;5015743;28;12306;-76
2022/04/21 04:20:05;;;;;;;;;12.25;11.50;;;;;;;;5012813;28;11518;-76
2022/04/21 04:22:40;;;;;;;;;22.25;15.75;;;;;;;;5029165;28;11535;-76
2022/04/21 04:25:08;;;;;;;;;16.00;16.00;;;;;;;;5022889;28;12055;-75
2022/04/21 04:27:36;;;;;;;;;11.75;11.75;;;;;;;;5026179;28;11526;-76
2022/04/21 04:30:05;;;;;;;;;17.50;15.75;;;;;;;;5018581;28;12359;-76
2022/04/21 04:32:33;;;;;;;;;18.00;18.00;;;;;;;;5022314;28;11514;-76
2022/04/21 04:35:00;;;;;;;;;16.00;16.00;;;;;;;;5021666;28;11508;-76
2022/04/21 04:37:27;;;;;;;;;17.50;15.50;;;;;;;;5022667;28;11494;-76
2022/04/21 04:39:59;;;;;;;;;14.50;14.50;;;;;;;;5023618;28;12280;-76
2022/04/21 04:42:25;;;;;;;;;19.50;19.25;;;;;;;;5020011;28;11497;-75
2022/04/21 04:46:34;;;;;;;;;15.50;14.25;;;;;;;;5018791;28;11646;-75
2022/04/21 04:47:41;;;;;;;;;16.25;16.25;;;;;;;;5022041;28;11494;-76
2022/04/21 04:50:09;;;;;;;;;11.75;11.25;;;;;;;;5020333;28;11555;-76
2022/04/21 04:52:37;;;;;;;;;16.75;15.75;;;;;;;;5019276;28;11482;-76
2022/04/21 04:55:09;;;;;;;;;18.25;15.00;;;;;;;;5021602;28;11494;-75
2022/04/21 04:57:36;;;;;;;;;18.25;16.25;;;;;;;;5023014;28;11571;-75
2022/04/21 05:00:05;;;;;;;;;18.25;15.75;;;;;;;;5020270;28;11522;-76
2022/04/21 05:02:32;;;;;;;;;21.50;17.50;;;;;;;;5025246;28;11530;-75
2022/04/21 05:05:00;;;;;;;;;20.25;20.25;;;;;;;;5012853;28;11553;-75
2022/04/21 05:07:27;;;;;;;;;23.00;20.00;;;;;;;;5010261;28;11538;-75
2022/04/21 05:09:54;;;;;;;;;16.50;16.50;;;;;;;;5008507;28;11499;-75
2022/04/21 05:12:23;;;;;;;;;21.50;19.00;;;;;;;;5017031;28;12371;-76
2022/04/21 05:14:52;;;;;;;;;14.25;13.00;;;;;;;;5017575;28;11507;-75
2022/04/21 05:17:20;;;;;;;;;14.50;13.50;;;;;;;;5017974;28;11612;-76
2022/04/21 05:19:48;;;;;;;;;15.75;15.75;;;;;;;;5020102;28;11500;-75
2022/04/21 05:22:17;;;;;;;;;15.25;15.25;;;;;;;;5014255;28;11603;-75
2022/04/21 05:24:47;;;;;;;;;18.00;15.50;;;;;;;;5021953;28;11529;-75
2022/04/21 05:27:15;;;;;;;;;19.00;15.25;;;;;;;;5018571;28;11494;-75
2022/04/21 05:32:30;;;;;;;;;13.00;12.25;;;;;;;;5020225;28;11455;-75
2022/04/21 05:34:58;;;;;;;;;16.00;16.00;;;;;;;;5020250;28;11604;-75
2022/04/21 05:37:26;;;;;;;;;13.00;12.25;;;;;;;;5023458;28;11523;-75
2022/04/21 05:39:54;;;;;;;;;18.75;15.50;;;;;;;;5021695;28;12267;-83
2022/04/21 05:42:24;;;;;;;;;18.25;18.25;;;;;;;;5019697;28;11605;-81
2022/04/21 05:44:54;;;;;;;;;14.75;14.25;;;;;;;;5025835;28;11480;-80
2022/04/21 05:47:22;;;;;;;;;19.75;17.50;;;;;;;;5021078;28;11579;-80
2022/04/21 05:49:50;;;;;;;;;15.75;15.75;;;;;;;;5018720;28;11507;-78
2022/04/21 05:52:18;;;;;;;;;19.50;17.00;;;;;;;;4987288;28;11513;-82
2022/04/21 05:54:47;;;;;;;;;15.25;15.25;;;;;;;;5005528;28;11509;-80
2022/04/21 05:57:14;;;;;;;;;20.50;15.75;;;;;;;;5022160;28;11663;-82
2022/04/21 05:59:41;;;;;;;;;14.25;14.25;;;;;;;;5021301;28;11517;-80
2022/04/21 06:02:11;;;;;;;;;11.00;11.00;;;;;;;;5017502;28;11459;-78
2022/04/21 06:04:38;;;;;;;;;15.75;13.75;;;;;;;;5020491;28;11468;-79
2022/04/21 06:07:06;;;;;;;;;12.75;12.00;;;;;;;;5022066;28;11471;-82
2022/04/21 06:09:34;;;;;;;;;16.50;14.75;;;;;;;;4988183;28;11584;-82
2022/04/21 06:12:02;;;;;;;;;16.00;16.00;;;;;;;;5003079;28;11551;-79
2022/04/21 06:14:29;;;;;;;;;15.75;13.75;;;;;;;;5021817;28;11477;-82
2022/04/21 06:16:58;;;;;;;;;13.50;13.00;;;;;;;;5018390;28;11482;-85
2022/04/21 06:19:27;;;;;;;;;14.75;14.75;;;;;;;;4984859;28;11446;-80
2022/04/21 06:21:54;;;;;;;;;13.50;13.50;;;;;;;;4998868;28;11546;-86
2022/04/21 06:24:21;;;;;;;;;16.00;13.00;;;;;;;;5021921;28;11436;-80
2022/04/21 06:26:48;;;;;;;;;16.00;13.25;;;;;;;;5019259;28;11440;-88
2022/04/21 06:29:16;;;;;;;;;12.00;12.00;;;;;;;;5024730;28;11470;-84
2022/04/21 06:31:45;;;;;;;;;21.75;17.75;;;;;;;;5020082;28;11518;-89
2022/04/21 06:34:12;;;;;;;;;14.75;14.25;;;;;;;;5015536;28;11495;-88
2022/04/21 06:36:44;;;;;;;;;7.00;7.00;;;;;;;;5021384;28;11560;-88
2022/04/21 06:39:11;;;;;;;;;20.75;17.00;;;;;;;;5005072;28;11438;-86
2022/04/21 06:41:38;;;;;;;;;16.00;13.25;;;;;;;;5004453;28;11503;-85
2022/04/21 06:49:35;;;;;;;;;17.50;14.50;;;;;;;;5020971;28;11414;-84
2022/04/21 06:52:04;;;;;;;;;17.00;17.00;;;;;;;;5009198;28;11501;-84
2022/04/21 06:54:32;;;;;;;;;12.50;12.50;;;;;;;;5001990;28;11435;-81
2022/04/21 06:56:59;;;;;;;;;16.00;14.50;;;;;;;;5020991;28;11457;-83
2022/04/21 06:59:26;;;;;;;;;13.75;13.75;;;;;;;;5023321;28;11302;-85
2022/04/21 07:01:54;;;;;;;;;16.50;14.00;;;;;;;;5006251;28;11201;-88
2022/04/21 07:04:21;;;;;;;;;18.00;15.25;;;;;;;;5021714;28;11109;-88
2022/04/21 07:06:48;;;;;;;;;16.50;16.50;;;;;;;;5018558;28;11965;-89
2022/04/21 07:09:17;;;;;;;;;14.00;14.00;;;;;;;;5016710;28;11150;-88
2022/04/21 07:11:45;;;;;;;;;16.25;16.25;;;;;;;;4987975;28;11040;-85
2022/04/21 07:14:12;;;;;;;;;16.00;15.00;;;;;;;;5011027;28;11130;-87
2022/04/21 07:16:40;;;;;;;;;15.00;13.00;;;;;;;;5010212;28;11250;-87
2022/04/21 07:19:07;;;;;;;;;18.75;16.50;;;;;;;;5022933;28;11103;-82
2022/04/21 07:21:35;;;;;;;;;14.75;14.75;;;;;;;;5024310;28;11585;-81
2022/04/21 07:24:02;;;;;;;;;13.75;12.50;;;;;;;;4999855;28;11492;-83
2022/04/21 07:26:31;;;;;;;;;9.25;8.00;;;;;;;;5016247;28;11133;-82
2022/04/21 07:28:58;;;;;;;;;9.75;9.75;;;;;;;;4998512;28;10544;-82
2022/04/21 07:31:26;;;;;;;;;10.75;10.75;;;;;;;;5021317;28;10608;-83
2022/04/21 07:33:54;;;;;;;;;10.75;8.50;;;;;;;;5025111;28;10636;-79
2022/04/21 07:36:21;;;;;;;;;12.50;10.25;;;;;;;;5015247;28;10423;-82
2022/04/21 07:38:49;;;;;;;;;13.00;9.00;;;;;;;;5020870;28;10645;-81
2022/04/21 07:41:17;;;;;;;;;10.00;10.00;;;;;;;;5017371;28;11175;-83
2022/04/21 07:43:46;;;;;;;;;9.00;9.00;;;;;;;;5019077;28;10568;-82
2022/04/21 07:46:14;;;;;;;;;12.00;12.00;;;;;;;;5004205;28;11164;-81
2022/04/21 07:51:26;;;;;;;;;8.50;7.00;;;;;;;;5025166;28;10380;-81
2022/04/21 07:53:53;;;;;;;;;8.50;8.50;;;;;;;;5024678;28;11059;-81
2022/04/21 07:56:20;;;;;;;;;11.00;9.00;;;;;;;;5024629;28;10302;-80
2022/04/21 07:58:49;;;;;;;;;10.25;9.00;;;;;;;;5023350;28;10296;-81
2022/04/21 08:01:16;;;;;;;;;7.50;7.50;;;;;;;;5018603;28;10187;-81
2022/04/21 08:03:44;;;;;;;;;9.75;9.75;;;;;;;;5005483;28;10012;-83
2022/04/21 08:06:12;;;;;;;;;10.50;8.25;;;;;;;;5022334;28;9875;-85
2022/04/21 08:08:40;;;;;;;;;10.50;10.50;;;;;;;;5022662;28;9857;-85
2022/04/21 08:11:08;;;;;;;;;8.75;8.00;;;;;;;;5014704;28;9769;-83
2022/04/21 08:13:35;;;;;;;;;12.50;10.00;;;;;;;;5014604;28;9719;-85
2022/04/21 08:16:05;;;;;;;;;9.50;9.00;;;;;;;;5014388;28;9689;-84
2022/04/21 08:18:32;;;;;;;;;9.25;9.25;;;;;;;;5022038;28;9585;-85
2022/04/21 08:20:59;;;;;;;;;11.00;9.33;;;;;;;;5012880;28;9764;-84
2022/04/21 08:23:27;;;;;;;;;8.00;8.00;;;;;;;;5021268;28;9321;-81
2022/04/21 08:34:10;;;;;;;;;8.00;8.00;;;;;;;;5005810;28;9151;-81
2022/04/21 08:36:38;;;;;;;;;5.67;5.67;;;;;;;;5016073;28;9121;-80
2022/04/21 08:39:05;;;;;;;;;7.75;7.75;;;;;;;;5022761;28;8971;-80
2022/04/21 08:41:34;;;;;;;;;10.33;10.33;;;;;;;;5021211;28;8959;-80
2022/04/21 08:44:03;;;;;;;;;7.50;7.50;;;;;;;;5021032;28;8952;-80
2022/04/21 08:46:34;;;;;;;;;8.25;8.25;;;;;;;;5019269;28;8887;-84
2022/04/21 08:49:01;;;;;;;;;12.75;9.75;;;;;;;;5014198;28;8903;-82
2022/04/21 08:51:33;;;;;;;;;11.00;9.75;;;;;;;;5020583;28;8894;-82
2022/04/21 08:54:02;;;;;;;;;7.00;7.00;;;;;;;;5018450;28;8892;-83
2022/04/21 08:56:30;;;;;;;;;11.50;8.50;;;;;;;;5017670;28;8924;-83
2022/04/21 08:58:58;;;;;;;;;8.75;8.50;;;;;;;;5016136;28;8892;-83
2022/04/21 09:01:26;;;;;;;;;12.25;8.25;;;;;;;;5017510;28;8829;-82
2022/04/21 09:03:54;;;;;;;;;7.75;7.75;;;;;;;;5017347;28;8862;-82
2022/04/21 09:06:24;;;;;;;;;10.00;9.00;;;;;;;;5020358;28;8908;-82
2022/04/21 09:09:12;;;;;;;;;4.25;3.00;;;;;;;;4998959;28;8870;-82
2022/04/21 09:11:42;;;;;;;;;9.25;9.25;;;;;;;;5007976;28;8884;-82
2022/04/21 09:14:16;;;;;;;;;3.00;3.00;;;;;;;;5013438;28;8883;-80
2022/04/21 09:16:43;;;;;;;;;13.50;11.50;;;;;;;;5010784;28;8877;-79
2022/04/21 09:19:12;;;;;;;;;10.00;9.00;;;;;;;;5021361;28;8878;-86
2022/04/21 09:21:40;;;;;;;;;9.00;9.00;;;;;;;;5020577;28;8959;-83
2022/04/21 09:24:21;;;;;;;;;8.25;8.25;;;;;;;;5004542;28;8939;-81
2022/04/21 09:26:49;;;;;;;;;7.75;7.75;;;;;;;;5015063;28;8874;-82
2022/04/21 09:29:24;;;;;;;;;7.00;7.00;;;;;;;;5019029;28;8862;-82
2022/04/21 09:31:57;;;;;;;;;10.75;9.00;;;;;;;;5008454;28;8883;-80
2022/04/21 09:34:26;;;;;;;;;6.25;6.25;;;;;;;;5012795;28;8869;-81
2022/04/21 09:36:55;;;;;;;;;7.50;7.50;;;;;;;;5019467;28;8914;-80
2022/04/21 09:39:23;;;;;;;;;8.25;8.25;;;;;;;;5010004;28;8852;-83
2022/04/21 09:41:54;;;;;;;;;10.00;8.00;;;;;;;;5002181;28;8869;-80
2022/04/21 09:47:07;;;;;;;;;13.00;11.00;;;;;;;;5015318;28;8836;-81
2022/04/21 09:49:36;;;;;;;;;8.75;8.75;;;;;;;;5024040;28;8927;-80
2022/04/21 09:52:04;;;;;;;;;10.25;8.25;;;;;;;;5021784;28;8841;-78
2022/04/21 09:54:33;;;;;;;;;7.00;7.00;;;;;;;;5023562;28;8874;-79
2022/04/21 09:57:01;;;;;;;;;9.00;7.25;;;;;;;;5027536;28;8867;-80
2022/04/21 09:59:34;;;;;;;;;8.75;7.00;;;;;;;;5023013;28;8972;-81
2022/04/21 10:02:04;;;;;;;;;7.25;7.25;;;;;;;;5017134;28;8865;-80
2022/04/21 10:04:31;;;;;;;;;9.75;8.00;;;;;;;;5022226;28;8878;-80
2022/04/21 10:07:00;;;;;;;;;6.75;6.75;;;;;;;;5014819;28;8878;-81
2022/04/21 10:09:29;;;;;;;;;8.00;8.00;;;;;;;;5021987;28;8881;-81
2022/04/21 10:11:58;;;;;;;;;8.00;8.00;;;;;;;;5022695;28;8909;-81
2022/04/21 10:14:26;;;;;;;;;8.00;8.00;;;;;;;;5005014;28;8862;-81
2022/04/21 10:16:53;;;;;;;;;6.00;6.00;;;;;;;;5023795;28;8976;-81
2022/04/21 10:19:24;;;;;;;;;6.50;6.50;;;;;;;;5023393;28;8904;-80
2022/04/21 10:21:54;;;;;;;;;8.00;8.00;;;;;;;;5005747;28;8894;-79
2022/04/21 10:24:32;;;;;;;;;7.40;7.40;;;;;;;;5015429;28;8886;-79
2022/04/21 10:26:59;;;;;;;;;9.40;8.40;;;;;;;;5014635;28;8876;-79
2022/04/21 10:29:28;;;;;;;;;9.60;7.60;;;;;;;;5017238;28;8971;-79
2022/04/21 10:31:57;;;;;;;;;10.00;8.40;;;;;;;;5020219;28;8973;-81
2022/04/21 10:34:34;;;;;;;;;6.60;6.60;;;;;;;;5015688;28;9014;-81
2022/04/21 10:37:12;;;;;;;;;8.75;7.75;;;;;;;;5019609;28;8846;-80
2022/04/21 10:39:41;;;;;;;;;5.50;5.50;;;;;;;;5019179;28;8866;-81
2022/04/21 10:42:14;;;;;;;;;6.60;6.40;;;;;;;;5019282;28;8931;-80
2022/04/21 10:44:49;;;;;;;;;7.00;7.00;;;;;;;;5014548;28;8850;-80
2022/04/21 10:47:41;;;;;;;;;6.75;6.75;;;;;;;;5023993;28;9002;-78
2022/04/21 10:50:17;;;;;;;;;6.00;6.00;;;;;;;;5017813;28;8857;-80
2022/04/21 10:58:49;;;;;;;;;6.20;6.20;;;;;;;;5015714;28;8828;-78
2022/04/21 11:01:28;;;;;;;;;7.60;7.60;;;;;;;;5014559;28;8819;-79
2022/04/21 11:04:12;;;;;;;;;5.40;5.40;;;;;;;;5020448;28;8874;-78
2022/04/21 11:06:41;;;;;;;;;5.00;5.00;;;;;;;;5013068;28;8862;-78
2022/04/21 11:09:09;;;;;;;;;7.20;6.60;;;;;;;;5012051;28;9702;-79
2022/04/21 11:11:48;;;;;;;;;5.80;5.80;;;;;;;;5016886;28;8831;-77
2022/04/21 11:14:31;;;;;;;;;7.00;7.00;;;;;;;;5017933;28;8858;-75
2022/04/21 11:16:58;;;;;;;;;7.80;6.00;;;;;;;;5018606;28;8862;-79
2022/04/21 11:19:44;;;;;;;;;6.60;6.60;;;;;;;;5025796;28;8884;-81
2022/04/21 11:22:14;;;;;;;;;5.60;5.60;;;;;;;;5028124;28;9632;-80
2022/04/21 11:25:01;;;;;;;;;6.80;6.80;;;;;;;;5004741;28;8973;-78
2022/04/21 11:27:32;;;;;;;;;4.60;4.60;;;;;;;;5013872;28;8864;-80
2022/04/21 11:30:01;;;;;;;;;5.80;5.80;;;;;;;;5024764;28;8878;-80
2022/04/21 11:32:28;;;;;;;;;8.00;7.00;;;;;;;;5019085;28;8826;-80
2022/04/21 11:35:00;;;;;;;;;9.00;8.00;;;;;;;;5018975;28;8881;-80
2022/04/21 11:37:48;;;;;;;;;5.40;5.40;;;;;;;;5014717;28;8871;-80
2022/04/21 11:40:23;;;;;;;;;8.40;8.40;;;;;;;;5019413;28;8890;-79
2022/04/21 11:42:52;;;;;;;;;7.60;7.60;;;;;;;;5017614;28;8874;-81
2022/04/21 11:45:21;;;;;;;;;8.00;8.00;;;;;;;;5022117;28;8866;-79
2022/04/21 11:47:48;;;;;;;;;8.00;8.00;;;;;;;;5021193;28;8857;-79
2022/04/21 11:50:23;;;;;;;;;4.20;4.20;;;;;;;;5018883;28;9679;-79
2022/04/21 11:52:54;;;;;;;;;6.00;6.00;;;;;;;;5020175;28;8850;-80
2022/04/21 11:55:25;;;;;;;;;10.60;9.00;;;;;;;;5018749;28;8846;-77
2022/04/21 11:57:54;;;;;;;;;4.00;4.00;;;;;;;;5021397;28;8932;-79
2022/04/21 12:08:45;;;;;;;;;8.00;8.00;;;;;;;;5001778;28;8817;-80
2022/04/21 12:11:14;;;;;;;;;8.00;8.00;;;;;;;;5017674;28;8866;-81
2022/04/21 12:13:43;;;;;;;;;7.40;5.80;;;;;;;;5024225;28;8854;-81
2022/04/21 12:16:39;;;;;;;;;5.20;5.20;;;;;;;;5023562;28;8858;-81
2022/04/21 12:19:20;;;;;;;;;7.60;6.20;;;;;;;;5015364;28;8871;-81
2022/04/21 12:21:56;;;;;;;;;4.00;4.00;;;;;;;;5011495;28;8858;-82
2022/04/21 12:24:30;;;;;;;;;7.80;7.80;;;;;;;;5023818;28;9737;-81
2022/04/21 12:26:58;;;;;;;;;7.00;7.00;;;;;;;;5024987;28;8904;-81
2022/04/21 12:29:29;;;;;;;;;6.40;6.40;;;;;;;;5024531;28;8882;-81
2022/04/21 12:31:58;;;;;;;;;7.20;7.20;;;;;;;;5017821;28;8801;-81
2022/04/21 12:34:28;;;;;;;;;5.80;5.80;;;;;;;;5007506;28;8878;-81
2022/04/21 12:36:57;;;;;;;;;4.60;4.60;;;;;;;;5004137;28;8883;-81
2022/04/21 12:39:25;;;;;;;;;5.60;5.60;;;;;;;;5030447;28;8864;-81
2022/04/21 12:41:54;;;;;;;;;4.60;4.60;;;;;;;;5021207;28;8898;-81
2022/04/21 12:44:24;;;;;;;;;4.80;4.80;;;;;;;;5024241;28;8879;-81
2022/04/21 12:47:00;;;;;;;;;4.40;4.40;;;;;;;;5014511;28;8864;-81
2022/04/21 12:49:55;;;;;;;;;6.60;6.60;;;;;;;;5018556;28;8880;-81
2022/04/21 12:52:38;;;;;;;;;5.60;5.60;;;;;;;;5001892;28;8866;-80
2022/04/21 12:55:10;;;;;;;;;6.20;6.20;;;;;;;;5011104;28;9012;-81
2022/04/21 12:57:39;;;;;;;;;5.60;5.00;;;;;;;;5013319;28;8862;-81
2022/04/21 13:00:09;;;;;;;;;5.00;3.80;;;;;;;;5003411;28;8914;-81
2022/04/21 13:02:38;;;;;;;;;4.60;4.60;;;;;;;;5003624;28;8876;-81
2022/04/21 13:05:06;;;;;;;;;2.00;2.00;;;;;;;;4999320;28;9631;-81
2022/04/21 13:07:33;;;;;;;;;4.00;4.00;;;;;;;;5022777;28;8998;-80
2022/04/21 13:10:00;;;;;;;;;4.00;4.00;;;;;;;;5024262;28;8973;-81
2022/04/21 13:12:30;;;;;;;;;5.20;4.80;;;;;;;;5017237;28;9995;-81
2022/04/21 13:14:58;;;;;;;;;6.60;5.40;;;;;;;;5028612;28;8880;-82
2022/04/21 13:17:26;;;;;;;;;2.80;2.80;;;;;;;;5023059;28;8866;-81
2022/04/21 13:19:55;;;;;;;;;2.80;2.80;;;;;;;;5023734;28;8878;-81
2022/04/21 13:22:21;;;;;;;;;3.80;3.80;;;;;;;;5024281;28;8858;-81
2022/04/21 13:24:48;;;;;;;;;2.80;2.80;;;;;;;;5022701;28;8862;-82
2022/04/21 13:27:16;;;;;;;;;2.80;2.80;;;;;;;;5005600;28;8977;-81
2022/04/21 13:29:44;;;;;;;;;2.00;2.00;;;;;;;;5005388;28;8881;-81
2022/04/21 13:34:57;;;;;;;;;4.40;4.40;;;;;;;;5031981;28;8834;-81
2022/04/21 13:37:25;;;;;;;;;4.20;4.20;;;;;;;;5022839;28;8985;-81
2022/04/21 13:39:52;;;;;;;;;4.60;4.60;;;;;;;;5019561;28;8853;-81
2022/04/21 13:42:19;;;;;;;;;3.60;3.60;;;;;;;;5006365;28;8882;-82
2022/04/21 13:44:46;;;;;;;;;3.80;3.80;;;;;;;;5023054;28;8866;-81
2022/04/21 13:47:14;;;;;;;;;4.80;4.80;;;;;;;;5019212;28;8904;-82
2022/04/21 13:49:43;;;;;;;;;2.80;2.80;;;;;;;;5016159;28;8934;-81
2022/04/21 13:52:12;;;;;;;;;3.00;2.80;;;;;;;;5008058;28;9755;-81
2022/04/21 13:54:40;;;;;;;;;3.80;3.80;;;;;;;;5004195;28;8925;-81
2022/04/21 13:57:07;;;;;;;;;3.80;3.80;;;;;;;;5004613;28;8883;-81
2022/04/21 13:59:35;;;;;;;;;3.80;3.80;;;;;;;;4999250;28;8892;-81
2022/04/21 14:02:02;;;;;;;;;5.20;4.40;;;;;;;;5000118;28;8782;-81
2022/04/21 14:04:29;;;;;;;;;5.60;4.00;;;;;;;;5004353;28;9644;-81
2022/04/21 14:06:57;;;;;;;;;3.00;3.00;;;;;;;;5023027;28;8870;-82
2022/04/21 14:09:25;;;;;;;;;3.00;3.00;;;;;;;;5022374;28;8893;-82
2022/04/21 14:11:53;;;;;;;;;2.80;2.80;;;;;;;;5022192;28;8878;-81
2022/04/21 14:14:20;;;;;;;;;3.80;3.80;;;;;;;;5023408;28;8892;-81
2022/04/21 14:16:47;;;;;;;;;2.80;2.80;;;;;;;;5009575;28;8864;-81
2022/04/21 14:19:15;;;;;;;;;1.80;1.80;;;;;;;;5022934;28;8870;-81
2022/04/21 14:21:43;;;;;;;;;2.80;2.80;;;;;;;;5022769;28;8871;-82
2022/04/21 14:24:11;;;;;;;;;2.40;2.40;;;;;;;;5022898;28;8870;-81
2022/04/21 14:26:40;;;;;;;;;4.00;2.40;;;;;;;;5006821;28;8906;-81
2022/04/21 14:29:08;;;;;;;;;4.00;2.80;;;;;;;;5000555;28;8861;-81
2022/04/21 14:31:35;;;;;;;;;1.80;1.80;;;;;;;;5003107;28;8900;-82
2022/04/21 14:34:02;;;;;;;;;2.00;2.00;;;;;;;;5030050;28;8842;-81
2022/04/21 14:36:30;;;;;;;;;2.40;2.40;;;;;;;;5016900;28;8959;-81
2022/04/21 14:44:29;;;;;;;;;1.80;1.80;;;;;;;;5017674;28;8957;-81
2022/04/21 14:46:57;;;;;;;;;2.00;2.00;;;;;;;;5025955;28;8912;-81
2022/04/21 14:49:25;;;;;;;;;1.60;1.60;;;;;;;;5036496;28;8971;-81
2022/04/21 14:51:52;;;;;;;;;3.40;3.40;;;;;;;;5013377;28;8982;-81
2022/04/21 14:54:19;;;;;;;;;1.80;1.80;;;;;;;;5016368;28;8882;-81
2022/04/21 14:56:48;;;;;;;;;1.80;1.80;;;;;;;;5030943;28;8937;-81
2022/04/21 14:59:16;;;;;;;;;0.60;0.60;;;;;;;;5015303;28;8882;-81
2022/04/21 15:01:44;;;;;;;;;1.00;1.00;;;;;;;;5025249;28;8912;-81
2022/04/21 15:04:11;;;;;;;;;1.80;1.80;;;;;;;;5026167;28;8890;-81
2022/04/21 15:06:38;;;;;;;;;2.00;1.80;;;;;;;;5026144;28;8976;-81
2022/04/21 15:09:06;;;;;;;;;0.80;0.80;;;;;;;;5027199;28;8904;-81
2022/04/21 15:11:33;;;;;;;;;2.40;2.40;;;;;;;;5025848;28;9295;-81
2022/04/21 15:14:02;;;;;;;;;1.80;1.80;;;;;;;;5038735;28;8888;-81
2022/04/21 15:16:33;;;;;;;;;1.80;1.80;;;;;;;;5045920;28;8905;-81
2022/04/21 15:19:01;;;;;;;;;1.60;1.60;;;;;;;;5046247;28;8863;-81
2022/04/21 15:21:28;;;;;;;;;2.20;1.80;;;;;;;;5045752;28;8980;-81
2022/04/21 15:23:55;;;;;;;;;2.40;2.40;;;;;;;;5045837;28;8852;-82
2022/04/21 15:26:23;;;;;;;;;2.00;2.00;;;;;;;;5025150;28;9001;-81
2022/04/21 15:28:50;;;;;;;;;2.00;2.00;;;;;;;;5025921;28;8890;-81
2022/04/21 15:31:20;;;;;;;;;1.80;1.80;;;;;;;;5014187;28;8843;-81
2022/04/21 15:33:47;;;;;;;;;1.40;1.40;;;;;;;;5007552;28;8919;-81
2022/04/21 15:36:14;;;;;;;;;4.80;2.80;;;;;;;;5024570;28;8874;-81
2022/04/21 15:38:47;;;;;;;;;0.60;0.60;;;;;;;;5025317;28;8869;-81
2022/04/21 15:41:15;;;;;;;;;3.00;3.00;;;;;;;;5025214;28;8850;-81
2022/04/21 15:43:42;;;;;;;;;3.60;3.60;;;;;;;;5024790;28;8868;-81
2022/04/21 15:46:09;;;;;;;;;3.80;3.80;;;;;;;;5025363;28;8976;-81
2022/04/21 15:48:38;;;;;;;;;4.20;3.80;;;;;;;;5026633;28;8924;-81
2022/04/21 15:51:06;;;;;;;;;3.60;3.60;;;;;;;;5028631;28;8863;-79